Time;durP1;ratioP1;P1;durP2;ratioP2;P2;SDS_P1;SDS_P2;PMS_P1;PMS_P2;Temp;Humidity;BMP_temperature;BMP_pressure;BME280_temperature;BME280_humidity;BME280_pressure;Samples;Min_cycle;Max_cycle;Signal;HPM_P1;HPM_P2
2021/07/09 00:01:01;;;;;;;10.25;4.53;;;16.50;99.90;;;;;;5098647;28;20749;-57
2021/07/09 00:03:42;;;;;;;8.10;4.20;;;16.60;99.90;;;;;;5091604;28;20388;-57
2021/07/09 00:06:08;;;;;;;10.77;4.60;;;16.70;99.90;;;;;;5069556;28;20817;-57
2021/07/09 00:08:33;;;;;;;9.77;4.55;;;16.70;99.90;;;;;;5070520;28;20473;-57
2021/07/09 00:10:59;;;;;;;7.60;4.40;;;16.60;99.90;;;;;;5082767;28;20779;-57
2021/07/09 00:13:25;;;;;;;7.03;4.22;;;16.60;99.90;;;;;;5075333;28;20380;-57
2021/07/09 00:15:52;;;;;;;8.97;4.67;;;16.50;99.90;;;;;;5076423;28;20391;-57
2021/07/09 00:18:18;;;;;;;8.80;4.50;;;16.50;99.90;;;;;;5079555;28;20740;-57
2021/07/09 00:20:43;;;;;;;7.40;4.85;;;16.50;99.90;;;;;;5086362;28;20390;-57
2021/07/09 00:23:09;;;;;;;8.13;4.80;;;16.60;99.90;;;;;;5086748;28;20425;-57
2021/07/09 00:25:36;;;;;;;9.38;4.82;;;16.50;99.90;;;;;;5089813;28;20777;-57
2021/07/09 00:28:03;;;;;;;9.18;4.70;;;16.50;99.90;;;;;;5089658;28;20401;-56
2021/07/09 00:30:29;;;;;;;8.00;4.87;;;16.60;99.90;;;;;;5090628;28;20382;-56
2021/07/09 00:32:55;;;;;;;7.57;4.97;;;16.60;99.90;;;;;;5089702;28;20439;-56
2021/07/09 00:35:20;;;;;;;8.00;4.90;;;16.70;99.90;;;;;;5090427;28;20390;-57
2021/07/09 00:37:46;;;;;;;8.80;4.60;;;16.70;99.90;;;;;;5090504;28;20909;-57
2021/07/09 00:40:14;;;;;;;9.80;5.00;;;16.60;99.90;;;;;;5089705;28;20374;-56
2021/07/09 00:42:42;;;;;;;11.15;4.80;;;16.60;99.90;;;;;;5089990;28;20393;-57
2021/07/09 00:45:09;;;;;;;9.60;4.50;;;16.70;99.90;;;;;;5089373;28;20912;-57
2021/07/09 00:47:35;;;;;;;10.35;4.80;;;16.60;99.90;;;;;;5077452;28;20406;-57
2021/07/09 00:50:01;;;;;;;9.97;5.23;;;16.60;99.90;;;;;;5089520;28;20870;-57
2021/07/09 00:52:27;;;;;;;9.07;4.60;;;16.50;99.90;;;;;;5089888;28;20389;-57
2021/07/09 00:54:53;;;;;;;11.45;4.88;;;16.50;99.90;;;;;;5089776;28;20375;-56
2021/07/09 00:57:19;;;;;;;7.25;4.55;;;16.50;99.90;;;;;;5070913;28;20382;-56
2021/07/09 00:59:44;;;;;;;11.63;5.03;;;16.40;99.90;;;;;;5069648;28;20754;-56
2021/07/09 01:02:10;;;;;;;7.55;4.65;;;16.50;99.90;;;;;;5069480;28;21219;-57
2021/07/09 01:04:36;;;;;;;9.53;4.57;;;16.50;99.90;;;;;;5076965;28;20385;-57
2021/07/09 01:07:03;;;;;;;8.52;5.07;;;16.40;99.90;;;;;;5088725;28;20759;-57
2021/07/09 01:09:28;;;;;;;11.40;5.28;;;16.50;99.90;;;;;;5088375;28;20457;-57
2021/07/09 01:11:55;;;;;;;7.20;4.90;;;16.50;99.90;;;;;;5089030;28;20834;-56
2021/07/09 01:14:21;;;;;;;8.90;4.65;;;16.50;99.90;;;;;;5088662;28;20367;-57
2021/07/09 01:16:48;;;;;;;9.90;4.78;;;16.50;99.90;;;;;;5089895;28;20428;-57
2021/07/09 01:19:15;;;;;;;9.48;4.72;;;16.50;99.90;;;;;;5089116;28;20382;-56
2021/07/09 01:21:42;;;;;;;8.18;4.30;;;16.50;99.90;;;;;;5086500;28;20393;-57
2021/07/09 01:24:10;;;;;;;9.07;4.38;;;16.50;99.90;;;;;;5070143;28;20410;-56
2021/07/09 01:26:37;;;;;;;8.60;4.10;;;16.50;99.90;;;;;;5071861;28;20403;-56
2021/07/09 01:29:04;;;;;;;9.60;4.55;;;16.50;99.90;;;;;;5081032;28;20433;-56
2021/07/09 01:31:29;;;;;;;8.65;4.28;;;16.40;99.90;;;;;;5069895;28;20495;-56
2021/07/09 01:33:55;;;;;;;8.30;5.00;;;16.40;99.90;;;;;;5087216;28;20397;-57
2021/07/09 01:36:22;;;;;;;8.70;4.70;;;16.40;99.90;;;;;;5087939;28;20443;-59
2021/07/09 01:38:50;;;;;;;10.35;5.05;;;16.40;99.90;;;;;;5069703;28;20391;-57
2021/07/09 01:41:17;;;;;;;8.65;4.70;;;16.30;99.90;;;;;;5068714;28;20376;-57
2021/07/09 01:43:44;;;;;;;7.40;4.63;;;16.30;99.90;;;;;;5069156;28;20375;-57
2021/07/09 01:46:10;;;;;;;10.73;5.60;;;16.10;99.90;;;;;;5086444;28;20401;-56
2021/07/09 01:48:35;;;;;;;10.60;5.70;;;16.20;99.90;;;;;;5089115;28;20410;-57
2021/07/09 01:51:01;;;;;;;13.57;5.72;;;16.20;99.90;;;;;;5088799;28;20375;-57
2021/07/09 01:53:27;;;;;;;10.20;5.57;;;16.20;99.90;;;;;;5089728;28;20373;-57
2021/07/09 01:55:53;;;;;;;10.60;5.50;;;16.20;99.90;;;;;;5089380;28;20756;-57
2021/07/09 01:58:19;;;;;;;9.80;6.03;;;16.20;99.90;;;;;;5088798;28;20407;-57
2021/07/09 02:00:45;;;;;;;9.45;5.60;;;16.20;99.90;;;;;;5089339;28;20837;-57
2021/07/09 02:03:11;;;;;;;9.07;5.68;;;16.20;99.90;;;;;;5088746;28;20370;-56
2021/07/09 02:05:40;;;;;;;11.70;5.70;;;16.10;99.90;;;;;;5089323;28;20871;-56
2021/07/09 02:08:06;;;;;;;10.52;5.40;;;16.20;99.90;;;;;;5071532;28;20515;-56
2021/07/09 02:10:36;;;;;;;10.40;5.90;;;14.10;99.90;;;;;;5069086;28;20384;-57
2021/07/09 02:13:03;;;;;;;8.70;5.53;;;16.10;99.90;;;;;;5068454;28;20470;-57
2021/07/09 02:15:37;;;;;;;12.20;5.68;;;16.20;99.90;;;;;;5069308;28;20870;-56
2021/07/09 02:18:04;;;;;;;8.52;5.40;;;16.10;99.90;;;;;;5068037;28;20399;-57
2021/07/09 02:20:30;;;;;;;9.00;5.30;;;16.20;99.90;;;;;;5069432;28;20384;-57
2021/07/09 02:23:00;;;;;;;9.00;5.60;;;16.10;99.90;;;;;;5072082;28;20384;-57
2021/07/09 02:25:27;;;;;;;9.37;5.60;;;16.10;99.90;;;;;;5072252;28;20581;-57
2021/07/09 02:27:55;;;;;;;9.97;6.03;;;16.00;99.90;;;;;;5083631;28;20449;-57
2021/07/09 02:30:23;;;;;;;10.30;5.70;;;16.10;99.90;;;;;;5072269;28;20383;-56
2021/07/09 02:32:49;;;;;;;12.80;5.90;;;16.00;99.90;;;;;;5073037;28;20897;-57
2021/07/09 02:35:18;;;;;;;9.27;6.05;;;16.00;99.90;;;;;;5071767;28;20881;-57
2021/07/09 02:37:48;;;;;;;9.95;6.85;;;16.10;99.90;;;;;;5072596;28;20391;-57
2021/07/09 02:40:16;;;;;;;10.35;5.65;;;16.10;99.90;;;;;;5070514;28;20391;-57
2021/07/09 02:42:44;;;;;;;10.75;5.45;;;16.10;99.90;;;;;;5072589;28;20380;-57
2021/07/09 02:45:11;;;;;;;9.40;6.07;;;16.10;99.90;;;;;;5071494;28;20829;-57
2021/07/09 02:47:38;;;;;;;10.52;6.05;;;16.00;99.90;;;;;;5072027;28;20400;-57
2021/07/09 02:50:06;;;;;;;11.60;6.22;;;16.10;99.90;;;;;;5071473;28;20384;-57
2021/07/09 02:52:32;;;;;;;8.90;5.85;;;16.00;99.90;;;;;;5071904;28;20483;-57
2021/07/09 02:54:57;;;;;;;10.23;5.60;;;16.00;99.90;;;;;;5071197;28;20475;-56
2021/07/09 02:57:23;;;;;;;11.30;5.90;;;15.90;99.90;;;;;;5071934;28;20387;-56
2021/07/09 02:59:48;;;;;;;10.27;5.57;;;16.00;99.90;;;;;;5072154;28;20390;-57
2021/07/09 03:02:14;;;;;;;10.38;5.93;;;16.00;99.90;;;;;;5071505;28;20379;-57
2021/07/09 03:04:40;;;;;;;17.40;6.63;;;16.00;99.90;;;;;;5072137;28;20765;-56
2021/07/09 03:07:05;;;;;;;11.40;6.10;;;16.10;99.90;;;;;;5070848;28;20395;-57
2021/07/09 03:09:31;;;;;;;9.50;5.63;;;16.10;99.90;;;;;;5071715;28;20893;-57
2021/07/09 03:11:56;;;;;;;13.03;5.80;;;16.10;99.90;;;;;;5071433;28;20388;-57
2021/07/09 03:14:22;;;;;;;10.23;5.53;;;16.10;99.90;;;;;;5071994;28;20785;-56
2021/07/09 03:16:48;;;;;;;12.38;5.82;;;16.10;99.90;;;;;;5072196;28;20380;-56
2021/07/09 03:19:13;;;;;;;10.07;5.50;;;16.10;99.90;;;;;;5071247;28;20372;-57
2021/07/09 03:21:39;;;;;;;11.27;5.47;;;16.10;99.90;;;;;;5071131;28;20384;-57
2021/07/09 03:24:05;;;;;;;13.23;6.32;;;16.10;99.90;;;;;;5069798;28;20387;-57
2021/07/09 03:26:32;;;;;;;10.90;5.43;;;16.10;99.90;;;;;;5071649;28;20383;-56
2021/07/09 03:28:57;;;;;;;11.18;6.57;;;16.10;99.90;;;;;;5070602;28;20404;-57
2021/07/09 03:31:32;;;;;;;10.33;6.23;;;16.10;99.90;;;;;;5083294;28;20896;-57
2021/07/09 03:33:58;;;;;;;9.30;5.57;;;16.10;99.90;;;;;;5108550;28;20864;-57
2021/07/09 03:36:25;;;;;;;8.82;5.65;;;16.20;99.90;;;;;;5111672;28;20872;-57
2021/07/09 03:38:57;;;;;;;10.00;5.90;;;16.10;99.90;;;;;;5111948;28;20389;-57
2021/07/09 03:41:24;;;;;;;11.75;6.40;;;16.00;99.90;;;;;;5112048;28;20441;-57
2021/07/09 03:43:50;;;;;;;10.57;6.40;;;16.00;99.90;;;;;;5111270;28;20433;-57
2021/07/09 03:46:15;;;;;;;11.80;5.97;;;16.00;99.90;;;;;;5109669;28;20462;-56
2021/07/09 03:48:41;;;;;;;10.52;6.70;;;16.00;99.90;;;;;;5111681;28;20408;-57
2021/07/09 03:51:08;;;;;;;10.70;5.80;;;16.00;99.90;;;;;;5110629;28;20379;-57
2021/07/09 03:53:34;;;;;;;9.00;5.57;;;16.00;99.90;;;;;;5111668;28;20456;-57
2021/07/09 03:56:00;;;;;;;13.00;6.65;;;16.00;99.90;;;;;;5111043;28;20464;-57
2021/07/09 03:58:26;;;;;;;9.93;6.17;;;15.90;99.90;;;;;;5111717;28;20797;-57
2021/07/09 04:00:52;;;;;;;12.80;6.70;;;15.90;99.90;;;;;;5111654;28;20814;-57
2021/07/09 04:03:17;;;;;;;12.47;6.30;;;15.90;99.90;;;;;;5111244;28;20383;-56
2021/07/09 04:05:43;;;;;;;8.30;5.82;;;15.70;99.90;;;;;;5111494;28;20384;-57
2021/07/09 04:08:08;;;;;;;11.47;5.77;;;15.80;99.90;;;;;;5109980;28;20427;-57
2021/07/09 04:10:34;;;;;;;10.90;5.33;;;15.70;99.90;;;;;;5110255;28;20380;-57
2021/07/09 04:13:00;;;;;;;9.85;5.72;;;15.80;99.90;;;;;;5109836;28;20735;-57
2021/07/09 04:15:25;;;;;;;10.23;6.10;;;15.80;99.90;;;;;;5104820;28;20443;-57
2021/07/09 04:17:51;;;;;;;11.77;6.07;;;15.70;99.90;;;;;;5091032;28;20381;-56
2021/07/09 04:20:17;;;;;;;12.75;6.38;;;15.70;99.90;;;;;;5074507;28;20408;-56
2021/07/09 04:22:42;;;;;;;10.07;6.50;;;15.70;99.90;;;;;;5069378;28;20388;-57
2021/07/09 04:25:09;;;;;;;8.80;5.88;;;15.70;99.90;;;;;;5069806;28;20861;-57
2021/07/09 04:27:36;;;;;;;11.80;6.40;;;15.60;99.90;;;;;;5070419;28;20439;-57
2021/07/09 04:30:04;;;;;;;9.95;6.10;;;15.70;99.90;;;;;;5074201;28;20453;-57
2021/07/09 04:32:29;;;;;;;10.57;6.00;;;15.60;99.90;;;;;;5090683;28;20386;-56
2021/07/09 04:34:55;;;;;;;14.20;7.20;;;15.60;99.90;;;;;;5089245;28;20382;-57
2021/07/09 04:37:21;;;;;;;12.27;6.30;;;15.60;99.90;;;;;;5090007;28;20436;-57
2021/07/09 04:39:46;;;;;;;11.00;6.20;;;15.50;99.90;;;;;;5090645;28;20377;-56
2021/07/09 04:42:13;;;;;;;10.18;5.88;;;15.50;99.90;;;;;;5089876;28;20885;-56
2021/07/09 04:44:39;;;;;;;9.43;5.88;;;15.50;99.90;;;;;;5088332;28;20382;-57
2021/07/09 04:47:05;;;;;;;9.20;5.55;;;15.50;99.90;;;;;;5089437;28;20705;-57
2021/07/09 04:49:30;;;;;;;12.30;6.32;;;15.50;99.90;;;;;;5089896;28;20409;-57
2021/07/09 04:51:56;;;;;;;9.80;5.72;;;15.50;99.90;;;;;;5090265;28;20391;-57
2021/07/09 04:54:22;;;;;;;11.95;6.22;;;15.40;99.90;;;;;;5083333;28;20390;-57
2021/07/09 04:56:48;;;;;;;9.43;5.70;;;15.40;99.90;;;;;;5069930;28;20395;-57
2021/07/09 04:59:14;;;;;;;10.87;6.17;;;15.40;99.90;;;;;;5070813;28;20427;-57
2021/07/09 05:01:40;;;;;;;8.45;5.75;;;15.40;99.90;;;;;;5122544;27;20454;-57
2021/07/09 05:04:07;;;;;;;11.10;6.40;;;15.50;99.90;;;;;;5089137;28;20378;-57
2021/07/09 05:06:36;;;;;;;9.32;5.68;;;15.50;99.90;;;;;;5089918;28;20393;-57
2021/07/09 05:09:06;;;;;;;9.90;5.55;;;15.50;99.90;;;;;;5087765;28;20512;-57
2021/07/09 05:11:34;;;;;;;10.00;6.13;;;15.50;99.90;;;;;;5089875;28;20457;-57
2021/07/09 05:14:00;;;;;;;12.57;6.15;;;15.50;99.90;;;;;;5089274;28;20909;-56
2021/07/09 05:16:25;;;;;;;12.00;5.77;;;15.60;99.90;;;;;;5089875;28;20378;-57
2021/07/09 05:18:52;;;;;;;9.98;6.00;;;15.60;99.90;;;;;;5089781;28;20803;-57
2021/07/09 05:21:19;;;;;;;16.00;5.93;;;15.60;99.90;;;;;;5084999;28;20374;-57
2021/07/09 05:23:44;;;;;;;10.57;5.87;;;15.60;99.90;;;;;;5071602;28;20380;-57
2021/07/09 05:26:10;;;;;;;11.73;5.57;;;15.60;99.90;;;;;;5088522;28;20386;-57
2021/07/09 05:28:36;;;;;;;11.87;5.60;;;15.60;99.90;;;;;;5088242;28;20402;-57
2021/07/09 05:31:01;;;;;;;10.60;5.70;;;15.70;99.90;;;;;;5076041;28;20399;-57
2021/07/09 05:33:28;;;;;;;11.07;6.25;;;15.70;99.90;;;;;;5084335;28;20380;-57
2021/07/09 05:35:54;;;;;;;9.20;6.10;;;15.70;99.90;;;;;;5069350;28;20489;-57
2021/07/09 05:38:20;;;;;;;8.95;5.70;;;15.70;99.90;;;;;;5079837;28;20382;-56
2021/07/09 05:40:46;;;;;;;10.90;5.95;;;15.60;99.90;;;;;;5085713;28;20443;-56
2021/07/09 05:43:11;;;;;;;9.90;5.50;;;15.60;99.90;;;;;;5083128;28;20393;-57
2021/07/09 05:45:37;;;;;;;12.38;5.95;;;15.60;99.90;;;;;;5079317;28;20380;-57
2021/07/09 05:48:03;;;;;;;10.55;6.10;;;15.70;99.90;;;;;;5068290;28;20408;-57
2021/07/09 05:50:29;;;;;;;9.30;6.00;;;15.70;99.90;;;;;;5071803;28;20397;-57
2021/07/09 05:52:56;;;;;;;13.57;6.23;;;15.70;99.90;;;;;;5085086;28;20417;-56
2021/07/09 05:55:22;;;;;;;8.95;5.85;;;15.60;99.90;;;;;;5088139;28;20393;-57
2021/07/09 05:57:47;;;;;;;8.90;6.40;;;15.60;99.90;;;;;;5091836;28;20382;-56
2021/07/09 06:00:13;;;;;;;9.90;6.20;;;15.50;99.90;;;;;;5092543;28;20386;-57
2021/07/09 06:02:39;;;;;;;9.60;5.70;;;15.60;99.90;;;;;;5093285;28;20450;-56
2021/07/09 06:05:07;;;;;;;9.90;6.93;;;15.60;99.90;;;;;;5092517;28;20374;-57
2021/07/09 06:07:32;;;;;;;11.38;6.80;;;15.60;99.90;;;;;;5087547;28;20506;-57
2021/07/09 06:09:58;;;;;;;10.23;6.90;;;15.60;99.90;;;;;;5089826;28;20416;-57
2021/07/09 06:12:24;;;;;;;9.45;6.40;;;15.70;99.90;;;;;;5085488;28;20430;-57
2021/07/09 06:14:51;;;;;;;10.97;6.17;;;15.70;99.90;;;;;;5073185;28;20371;-56
2021/07/09 06:17:17;;;;;;;11.40;6.70;;;15.70;99.90;;;;;;5071956;28;20852;-56
2021/07/09 06:19:43;;;;;;;9.57;7.00;;;15.80;99.90;;;;;;5072779;28;20407;-56
2021/07/09 06:22:09;;;;;;;10.57;6.50;;;15.70;99.90;;;;;;5089270;28;20863;-57
2021/07/09 06:24:34;;;;;;;10.47;6.57;;;15.90;99.90;;;;;;5088872;28;20893;-56
2021/07/09 06:27:00;;;;;;;12.43;7.30;;;15.80;99.90;;;;;;5117397;27;20421;-56
2021/07/09 06:29:26;;;;;;;11.32;7.25;;;15.90;99.90;;;;;;5084615;28;20900;-56
2021/07/09 06:31:51;;;;;;;13.07;7.20;;;15.80;99.90;;;;;;5081657;28;20786;-56
2021/07/09 06:34:17;;;;;;;12.05;7.25;;;15.80;99.90;;;;;;5078322;28;20380;-56
2021/07/09 06:36:43;;;;;;;11.27;7.60;;;15.90;99.90;;;;;;5078459;28;20400;-56
2021/07/09 06:39:08;;;;;;;10.90;7.35;;;15.90;99.90;;;;;;5071397;28;20453;-57
2021/07/09 06:41:34;;;;;;;11.77;7.53;;;15.90;99.90;;;;;;5083093;28;20397;-57
2021/07/09 06:44:00;;;;;;;10.80;8.13;;;15.90;99.90;;;;;;5073797;28;20396;-57
2021/07/09 06:46:26;;;;;;;12.45;8.30;;;15.90;99.90;;;;;;5083684;28;20409;-57
2021/07/09 06:48:53;;;;;;;10.50;7.13;;;16.10;99.90;;;;;;5083236;28;20411;-58
2021/07/09 06:51:18;;;;;;;11.88;7.50;;;16.20;99.90;;;;;;5080587;28;20724;-57
2021/07/09 06:53:44;;;;;;;10.83;8.00;;;16.30;99.90;;;;;;5074628;28;20883;-57
2021/07/09 06:56:10;;;;;;;11.88;8.02;;;16.30;99.90;;;;;;5079849;28;20395;-57
2021/07/09 06:58:36;;;;;;;11.00;7.80;;;16.40;99.90;;;;;;5075798;28;20399;-56
2021/07/09 07:01:01;;;;;;;10.85;7.60;;;16.30;99.90;;;;;;5089381;28;20391;-56
2021/07/09 07:03:27;;;;;;;12.60;7.60;;;16.40;99.90;;;;;;5081886;28;20923;-57
2021/07/09 07:05:53;;;;;;;10.98;7.43;;;16.50;99.90;;;;;;5082756;28;20415;-57
2021/07/09 07:08:25;;;;;;;10.30;7.63;;;16.60;99.90;;;;;;5070259;28;21283;-56
2021/07/09 07:10:52;;;;;;;13.68;7.18;;;16.60;99.90;;;;;;5081321;28;20387;-57
2021/07/09 07:13:22;;;;;;;10.10;7.30;;;16.60;99.90;;;;;;5074320;28;20379;-57
2021/07/09 07:15:47;;;;;;;11.48;7.90;;;16.60;99.90;;;;;;5091754;28;20467;-58
2021/07/09 07:18:13;;;;;;;13.10;8.17;;;16.80;99.90;;;;;;5077701;28;20821;-57
2021/07/09 07:20:41;;;;;;;13.02;8.70;;;16.90;99.90;;;;;;5071750;28;20372;-57
2021/07/09 07:23:08;;;;;;;10.57;7.80;;;17.00;99.90;;;;;;5070714;28;20457;-57
2021/07/09 07:25:34;;;;;;;11.27;7.90;;;17.00;99.90;;;;;;5070040;28;20939;-57
2021/07/09 07:28:00;;;;;;;11.30;7.75;;;17.10;99.90;;;;;;5070958;28;20437;-57
2021/07/09 07:30:27;;;;;;;11.95;8.13;;;17.10;99.90;;;;;;5070863;28;20749;-57
2021/07/09 07:32:53;;;;;;;12.20;8.35;;;17.30;99.90;;;;;;5071269;28;20471;-57
2021/07/09 07:35:18;;;;;;;11.27;8.20;;;17.30;99.90;;;;;;5070633;28;20400;-57
2021/07/09 07:37:44;;;;;;;12.32;8.88;;;17.30;99.90;;;;;;5071441;28;20387;-57
2021/07/09 07:40:10;;;;;;;11.00;8.10;;;17.20;99.90;;;;;;5070986;28;20382;-57
2021/07/09 07:42:36;;;;;;;14.23;8.52;;;17.30;99.90;;;;;;5075973;28;20720;-57
2021/07/09 07:45:03;;;;;;;12.20;8.37;;;17.40;99.90;;;;;;5074014;28;20429;-57
2021/07/09 07:47:29;;;;;;;11.20;8.20;;;17.30;99.90;;;;;;5079733;28;20399;-57
2021/07/09 07:49:55;;;;;;;14.10;8.15;;;17.40;99.90;;;;;;5084273;28;20473;-57
2021/07/09 07:52:21;;;;;;;12.00;8.02;;;17.40;99.90;;;;;;5086142;28;20453;-57
2021/07/09 07:54:46;;;;;;;12.65;8.40;;;17.60;99.90;;;;;;5091375;28;20378;-57
2021/07/09 07:57:12;;;;;;;9.97;7.60;;;17.80;99.90;;;;;;5090387;28;20381;-57
2021/07/09 07:59:38;;;;;;;12.20;7.30;;;17.90;99.90;;;;;;5066023;28;20390;-57
2021/07/09 08:02:04;;;;;;;10.25;6.97;;;18.00;99.90;;;;;;5076521;28;20418;-57
2021/07/09 08:04:29;;;;;;;9.13;6.03;;;18.00;99.90;;;;;;5080431;28;20368;-57
2021/07/09 08:06:55;;;;;;;12.45;6.05;;;17.90;99.90;;;;;;5070960;28;20548;-57
2021/07/09 08:09:21;;;;;;;9.80;7.00;;;17.80;99.90;;;;;;5069599;28;20427;-57
2021/07/09 08:11:46;;;;;;;10.90;7.10;;;17.90;99.90;;;;;;5070586;28;20457;-57
2021/07/09 08:14:12;;;;;;;10.40;6.80;;;18.00;99.90;;;;;;5069614;28;20380;-57
2021/07/09 08:16:38;;;;;;;10.98;6.40;;;17.90;99.90;;;;;;5070912;28;20857;-57
2021/07/09 08:19:04;;;;;;;9.50;5.93;;;17.80;99.90;;;;;;5069464;28;20376;-57
2021/07/09 08:21:30;;;;;;;10.70;6.10;;;17.80;99.90;;;;;;5070123;28;20737;-57
2021/07/09 08:23:55;;;;;;;10.53;6.50;;;17.80;99.90;;;;;;5087812;28;20858;-57
2021/07/09 08:26:21;;;;;;;9.40;6.40;;;17.80;99.90;;;;;;5089228;28;20397;-57
2021/07/09 08:28:47;;;;;;;10.45;7.00;;;17.90;99.90;;;;;;5081110;28;20414;-55
2021/07/09 08:31:12;;;;;;;12.47;7.10;;;18.10;99.90;;;;;;5068989;28;20384;-56
2021/07/09 08:33:38;;;;;;;11.23;7.10;;;18.30;99.90;;;;;;5074324;28;20454;-55
2021/07/09 08:36:04;;;;;;;11.90;6.80;;;18.50;99.90;;;;;;5089326;28;20470;-55
2021/07/09 08:38:30;;;;;;;11.33;6.30;;;18.80;99.90;;;;;;5089964;28;20378;-55
2021/07/09 08:40:55;;;;;;;10.55;6.88;;;18.90;99.90;;;;;;5086255;28;20519;-55
2021/07/09 08:43:21;;;;;;;10.03;6.50;;;18.70;99.90;;;;;;5073176;28;20463;-56
2021/07/09 08:45:47;;;;;;;11.23;6.80;;;19.00;99.90;;;;;;5079253;28;20865;-55
2021/07/09 08:48:14;;;;;;;11.18;6.60;;;19.40;99.90;;;;;;5077020;28;20397;-55
2021/07/09 08:50:40;;;;;;;10.60;7.27;;;19.90;99.90;;;;;;5089654;28;20823;-55
2021/07/09 08:53:06;;;;;;;11.07;6.63;;;20.10;99.90;;;;;;5088710;28;20406;-56
2021/07/09 08:55:31;;;;;;;10.80;7.10;;;20.60;99.90;;;;;;5079528;28;20507;-56
2021/07/09 08:57:57;;;;;;;10.90;6.22;;;20.70;99.90;;;;;;5069695;28;20761;-56
2021/07/09 09:00:26;;;;;;;11.07;6.85;;;20.70;99.90;;;;;;5080238;28;20435;-56
2021/07/09 09:02:52;;;;;;;10.95;6.88;;;20.20;99.90;;;;;;5089279;28;20473;-55
2021/07/09 09:05:27;;;;;;;12.02;6.30;;;20.60;99.90;;;;;;5088599;28;20854;-55
2021/07/09 09:08:05;;;;;;;10.40;6.33;;;20.80;99.90;;;;;;5089953;28;20482;-56
2021/07/09 09:10:36;;;;;;;11.95;7.28;;;21.10;99.90;;;;;;5089172;28;20926;-56
2021/07/09 09:13:26;;;;;;;9.17;5.70;;;21.40;99.90;;;;;;5089349;28;20484;-56
2021/07/09 09:16:10;;;;;;;9.18;5.90;;;21.20;99.90;;;;;;5090105;28;20843;-56
2021/07/09 09:18:40;;;;;;;8.30;5.60;;;21.70;99.90;;;;;;5089864;28;20791;-56
2021/07/09 09:21:15;;;;;;;14.43;5.93;;;22.60;99.90;;;;;;5088523;28;20382;-56
2021/07/09 09:23:52;;;;;;;9.50;6.18;;;22.90;99.90;;;;;;5089144;28;20385;-56
2021/07/09 09:26:47;;;;;;;9.13;6.20;;;23.30;99.90;;;;;;5088139;28;20443;-56
2021/07/09 09:29:25;;;;;;;9.40;5.50;;;23.70;99.90;;;;;;5085286;28;20745;-57
2021/07/09 09:31:56;;;;;;;11.13;5.00;;;24.60;99.90;;;;;;5069169;28;20386;-56
2021/07/09 09:34:48;;;;;;;9.98;5.80;;;25.70;99.90;;;;;;5086846;28;20386;-56
2021/07/09 09:37:19;;;;;;;10.68;5.70;;;25.00;99.90;;;;;;5088784;28;20429;-58
2021/07/09 09:39:46;;;;;;;9.00;5.45;;;24.20;99.90;;;;;;5078380;28;20384;-57
2021/07/09 09:42:18;;;;;;;9.60;5.38;;;23.50;99.90;;;;;;5085763;28;20381;-57
2021/07/09 09:45:00;;;;;;;9.30;5.75;;;23.30;99.90;;;;;;5088872;28;20383;-57
2021/07/09 09:47:36;;;;;;;9.65;5.70;;;22.80;99.90;;;;;;5068336;28;20570;-57
2021/07/09 09:50:06;;;;;;;8.93;6.03;;;22.20;99.90;;;;;;5069278;28;20380;-57
2021/07/09 09:52:43;;;;;;;10.47;6.20;;;22.00;99.90;;;;;;5068950;28;20425;-57
2021/07/09 09:55:14;;;;;;;9.23;5.78;;;22.00;99.90;;;;;;5068843;28;20383;-58
2021/07/09 09:57:41;;;;;;;9.82;5.93;;;22.10;99.90;;;;;;5069656;28;20391;-56
2021/07/09 10:00:27;;;;;;;10.75;6.50;;;22.30;99.90;;;;;;5082648;28;20469;-57
2021/07/09 10:02:53;;;;;;;10.73;6.22;;;22.20;99.90;;;;;;5089432;28;20374;-56
2021/07/09 10:05:19;;;;;;;11.10;6.32;;;22.00;99.90;;;;;;5086411;28;20394;-57
2021/07/09 10:07:45;;;;;;;9.27;6.10;;;21.90;99.90;;;;;;5089568;28;20378;-57
2021/07/09 10:10:13;;;;;;;12.30;6.57;;;21.80;99.90;;;;;;5088199;28;20402;-57
2021/07/09 10:12:41;;;;;;;8.55;5.78;;;21.60;99.90;;;;;;5089314;28;20375;-57
2021/07/09 10:15:07;;;;;;;10.57;5.55;;;21.70;99.90;;;;;;5088313;28;20442;-57
2021/07/09 10:17:34;;;;;;;9.23;6.10;;;21.80;99.90;;;;;;5088772;28;20382;-57
2021/07/09 10:20:02;;;;;;;8.63;5.80;;;22.00;99.90;;;;;;5088349;28;20382;-57
2021/07/09 10:22:28;;;;;;;11.02;5.72;;;22.20;99.90;;;;;;5088142;28;20385;-57
2021/07/09 10:24:55;;;;;;;9.20;5.53;;;22.40;99.90;;;;;;5089003;28;20382;-57
2021/07/09 10:27:23;;;;;;;11.57;6.20;;;22.60;99.90;;;;;;5087986;28;20843;-57
2021/07/09 10:29:50;;;;;;;8.05;5.47;;;23.00;99.90;;;;;;5089062;28;20500;-57
2021/07/09 10:32:33;;;;;;;8.88;5.50;;;23.40;99.90;;;;;;5087233;28;20877;-57
2021/07/09 10:34:59;;;;;;;8.88;5.75;;;23.30;99.90;;;;;;5082141;28;20497;-57
2021/07/09 10:37:29;;;;;;;9.10;5.60;;;23.20;99.90;;;;;;5077322;28;21243;-57
2021/07/09 10:40:19;;;;;;;9.45;5.40;;;23.30;99.90;;;;;;5071441;28;20386;-57
2021/07/09 10:42:47;;;;;;;8.30;5.25;;;22.90;99.90;;;;;;5088992;28;20366;-57
2021/07/09 10:45:16;;;;;;;8.30;5.27;;;22.70;99.90;;;;;;5092056;28;20385;-57
2021/07/09 10:48:09;;;;;;;8.38;5.30;;;22.70;99.90;;;;;;5086028;28;20418;-57
2021/07/09 10:50:52;;;;;;;10.60;5.80;;;22.80;99.90;;;;;;5072058;28;20423;-57
2021/07/09 10:53:25;;;;;;;8.40;5.30;;;23.20;99.90;;;;;;5072039;28;20833;-57
2021/07/09 10:56:08;;;;;;;10.90;5.90;;;23.00;99.90;;;;;;5072220;28;20391;-57
2021/07/09 10:58:59;;;;;;;11.63;6.70;;;22.90;99.90;;;;;;5072877;28;20873;-57
2021/07/09 11:01:31;;;;;;;9.17;5.60;;;22.50;99.90;;;;;;5091489;28;20463;-57
2021/07/09 11:03:57;;;;;;;9.30;5.80;;;22.60;99.90;;;;;;5092533;28;20839;-57
2021/07/09 11:06:31;;;;;;;8.10;5.38;;;22.60;99.90;;;;;;5079394;28;20407;-57
2021/07/09 11:09:02;;;;;;;8.02;5.45;;;23.00;99.90;;;;;;5081466;28;20487;-57
2021/07/09 11:11:43;;;;;;;8.48;5.72;;;23.00;99.90;;;;;;5086584;28;20401;-57
2021/07/09 11:14:27;;;;;;;9.85;6.28;;;23.10;99.90;;;;;;5091888;28;20396;-57
2021/07/09 11:16:58;;;;;;;9.90;6.78;;;23.50;99.90;;;;;;5089860;28;20416;-58
2021/07/09 11:19:34;;;;;;;10.82;7.32;;;23.50;99.90;;;;;;5091866;28;20460;-57
2021/07/09 11:22:12;;;;;;;12.20;7.05;;;23.50;99.90;;;;;;5091739;28;20397;-58
2021/07/09 11:24:56;;;;;;;14.38;9.77;;;23.50;99.90;;;;;;5091360;28;20385;-57
2021/07/09 11:27:25;;;;;;;12.70;8.20;;;23.60;99.90;;;;;;5091001;28;20386;-57
2021/07/09 11:29:56;;;;;;;13.90;8.80;;;23.40;99.90;;;;;;5090907;28;20771;-57
2021/07/09 11:32:22;;;;;;;14.93;8.90;;;23.60;99.90;;;;;;5090816;28;20382;-58
2021/07/09 11:34:57;;;;;;;14.20;9.90;;;24.00;99.90;;;;;;5090738;28;20732;-58
2021/07/09 11:37:28;;;;;;;14.90;10.67;;;23.80;99.90;;;;;;5090276;28;20413;-58
2021/07/09 11:40:06;;;;;;;15.40;10.60;;;24.20;99.90;;;;;;5091226;28;20506;-58
2021/07/09 11:42:34;;;;;;;16.40;10.27;;;24.80;99.90;;;;;;5091478;28;20378;-55
2021/07/09 11:45:03;;;;;;;15.10;10.30;;;24.90;99.90;;;;;;5091409;28;20378;-57
2021/07/09 11:47:36;;;;;;;14.40;10.68;;;23.90;99.90;;;;;;5090795;28;20469;-58
2021/07/09 11:50:16;;;;;;;14.32;10.50;;;23.30;99.90;;;;;;5092201;28;20405;-57
2021/07/09 11:52:44;;;;;;;14.38;10.70;;;22.70;99.90;;;;;;5091107;28;20894;-57
2021/07/09 11:55:12;;;;;;;16.80;10.80;;;22.60;99.90;;;;;;5090061;28;20382;-57
2021/07/09 11:57:40;;;;;;;15.55;11.65;;;22.50;99.90;;;;;;5091373;28;20419;-57
2021/07/09 12:00:13;;;;;;;16.08;11.23;;;22.50;99.90;;;;;;5090504;28;20389;-57
2021/07/09 12:02:40;;;;;;;16.63;10.40;;;22.90;99.90;;;;;;5091300;28;20832;-57
2021/07/09 12:05:11;;;;;;;16.90;11.05;;;23.40;99.90;;;;;;5090898;28;20381;-57
2021/07/09 12:07:43;;;;;;;16.75;9.77;;;24.00;99.90;;;;;;5090881;28;20391;-55
2021/07/09 12:10:18;;;;;;;15.57;9.93;;;25.00;99.90;;;;;;5090482;28;20917;-55
2021/07/09 12:12:52;;;;;;;15.00;9.80;;;25.50;99.90;;;;;;5090472;28;20465;-55
2021/07/09 12:15:20;;;;;;;13.73;9.48;;;25.20;99.90;;;;;;5089955;28;20386;-57
2021/07/09 12:17:48;;;;;;;13.40;9.40;;;24.60;99.90;;;;;;5085913;28;20382;-57
2021/07/09 12:20:20;;;;;;;14.38;9.40;;;24.50;99.90;;;;;;5103875;27;20403;-58
2021/07/09 12:22:48;;;;;;;14.80;9.52;;;24.10;99.90;;;;;;5086297;28;20398;-57
2021/07/09 12:25:20;;;;;;;12.20;8.55;;;24.00;99.90;;;;;;5082839;28;20397;-57
2021/07/09 12:27:46;;;;;;;12.30;8.20;;;24.30;99.90;;;;;;5084534;28;20642;-55
2021/07/09 12:30:15;;;;;;;11.77;8.15;;;24.70;99.90;;;;;;5089717;28;20970;-55
2021/07/09 12:32:43;;;;;;;11.40;7.90;;;25.10;99.90;;;;;;5098113;28;20382;-55
2021/07/09 12:35:09;;;;;;;11.57;7.80;;;25.40;99.90;;;;;;5088897;28;20722;-55
2021/07/09 12:37:35;;;;;;;9.95;7.55;;;25.50;99.90;;;;;;5098033;28;20485;-55
2021/07/09 12:40:12;;;;;;;10.18;7.55;;;25.40;99.90;;;;;;5094463;28;20874;-55
2021/07/09 12:42:38;;;;;;;10.83;7.80;;;25.40;99.90;;;;;;5078005;28;20376;-55
2021/07/09 12:45:05;;;;;;;10.60;7.63;;;25.60;99.90;;;;;;5102184;28;20397;-55